createdAt,value
2018-12-17T00:01:58.002Z,97695.00
2018-12-17T00:06:00.427Z,97690.00
2018-12-17T00:10:02.895Z,97691.00
2018-12-17T00:14:05.275Z,97687.00
2018-12-17T00:18:07.592Z,97676.00
2018-12-17T00:22:09.913Z,97681.00
2018-12-17T00:26:12.325Z,97682.00
2018-12-17T00:30:14.789Z,97692.00
2018-12-17T00:34:17.255Z,97685.00
2018-12-17T00:38:19.895Z,97694.00
2018-12-17T00:42:22.320Z,97692.00
2018-12-17T00:46:25.424Z,97688.00
2018-12-17T00:50:27.815Z,97695.00
2018-12-17T00:54:30.284Z,97692.00
2018-12-17T00:58:32.894Z,97696.00
2018-12-17T01:02:35.484Z,97694.00
2018-12-17T01:06:38.273Z,97695.00
2018-12-17T01:10:41.254Z,97695.00
2018-12-17T01:14:43.760Z,97700.00
2018-12-17T01:18:46.209Z,97704.00
2018-12-17T01:22:48.630Z,97708.00
2018-12-17T01:26:51.018Z,97710.00
2018-12-17T01:30:53.444Z,97712.00
2018-12-17T01:34:55.874Z,97721.00
2018-12-17T01:38:58.215Z,97726.00
2018-12-17T01:43:00.634Z,97729.00
2018-12-17T01:47:03.053Z,97732.00
2018-12-17T01:51:05.438Z,97731.00
2018-12-17T01:55:07.797Z,97725.00
2018-12-17T01:59:10.168Z,97737.00
2018-12-17T02:03:12.545Z,97736.00
2018-12-17T02:07:15.322Z,97750.00
2018-12-17T02:11:17.282Z,97752.00
2018-12-17T02:15:19.734Z,97749.00
2018-12-17T02:19:22.067Z,97743.00
2018-12-17T02:23:24.413Z,97743.00
2018-12-17T02:27:26.728Z,97739.00
2018-12-17T02:31:29.074Z,97736.00
2018-12-17T02:35:31.432Z,97745.00
2018-12-17T02:39:33.883Z,97739.00
2018-12-17T02:43:36.234Z,97754.00
2018-12-17T02:47:38.588Z,97758.00
2018-12-17T02:51:40.955Z,97750.00
2018-12-17T02:55:43.351Z,97752.00
2018-12-17T02:59:45.704Z,97762.00
2018-12-17T03:03:48.123Z,97760.00
2018-12-17T03:07:50.597Z,97762.00
2018-12-17T03:11:52.945Z,97757.00
2018-12-17T03:15:55.288Z,97751.00
2018-12-17T03:19:57.646Z,97755.00
2018-12-17T03:24:00.033Z,97766.00
2018-12-17T03:28:02.387Z,97778.00
2018-12-17T03:32:04.830Z,97769.00
2018-12-17T03:36:07.166Z,97768.00
2018-12-17T03:40:09.577Z,97780.00
2018-12-17T03:44:11.921Z,97787.00
2018-12-17T03:48:14.287Z,97798.00
2018-12-17T03:52:16.585Z,97794.00
2018-12-17T03:56:18.894Z,97795.00
2018-12-17T04:00:21.326Z,97798.00
2018-12-17T04:04:23.658Z,97797.00
2018-12-17T04:08:26.018Z,97797.00
2018-12-17T04:12:28.351Z,97801.00
2018-12-17T04:16:30.718Z,97814.00
2018-12-17T04:20:33.123Z,97812.00
2018-12-17T04:24:42.027Z,97829.00
2018-12-17T04:28:44.357Z,97831.00
2018-12-17T04:32:46.646Z,97823.00
2018-12-17T04:36:49.011Z,97787.00
2018-12-17T04:40:51.360Z,97829.00
2018-12-17T04:44:53.694Z,97834.00
2018-12-17T04:48:56.236Z,97832.00
2018-12-17T04:52:58.782Z,97838.00
2018-12-17T04:57:01.118Z,97844.00
2018-12-17T05:01:03.478Z,97844.00
2018-12-17T05:05:06.093Z,97853.00
2018-12-17T05:09:08.437Z,97862.00
2018-12-17T05:13:10.762Z,97869.00
2018-12-17T05:17:13.102Z,97867.00
2018-12-17T05:21:15.422Z,97852.00
2018-12-17T05:25:17.720Z,97864.00
2018-12-17T05:29:21.634Z,97869.00
2018-12-17T05:33:22.556Z,97874.00
2018-12-17T05:37:24.892Z,97879.00
2018-12-17T05:41:27.330Z,97878.00
2018-12-17T05:45:29.656Z,97881.00
2018-12-17T05:49:31.971Z,97897.00
2018-12-17T05:53:34.356Z,97900.00
2018-12-17T05:57:36.694Z,97909.00
2018-12-17T06:01:39.125Z,97916.00
2018-12-17T06:05:41.459Z,97911.00
2018-12-17T06:09:43.800Z,97921.00
2018-12-17T06:17:55.205Z,97936.00
2018-12-17T06:21:57.549Z,97931.00
2018-12-17T06:25:59.906Z,97940.00
2018-12-17T06:30:02.270Z,97949.00
2018-12-17T06:34:04.636Z,97951.00
2018-12-17T06:38:07.040Z,97954.00
2018-12-17T06:42:09.435Z,97964.00
2018-12-17T06:46:11.779Z,97958.00
2018-12-17T06:50:14.085Z,97970.00
2018-12-17T06:54:16.361Z,97973.00
2018-12-17T06:58:18.821Z,97972.00
2018-12-17T07:02:21.224Z,97983.00
2018-12-17T07:06:23.583Z,97978.00
2018-12-17T07:10:25.934Z,97971.00
2018-12-17T07:14:28.322Z,97973.00
2018-12-17T07:18:30.713Z,97973.00
2018-12-17T07:22:33.005Z,97979.00
2018-12-17T07:26:35.361Z,97994.00
2018-12-17T07:30:37.710Z,97986.00
2018-12-17T07:34:40.120Z,97981.00
2018-12-17T07:38:42.469Z,97981.00
2018-12-17T07:42:44.829Z,97993.00
2018-12-17T07:46:47.129Z,97999.00
2018-12-17T07:50:49.585Z,98007.00
2018-12-17T07:54:51.894Z,98010.00
2018-12-17T07:58:54.326Z,98026.00
2018-12-17T08:02:56.666Z,98036.00
2018-12-17T08:06:58.973Z,98040.00
2018-12-17T08:11:01.311Z,98045.00
2018-12-17T08:15:04.600Z,98062.00
2018-12-17T08:19:06.976Z,98059.00
2018-12-17T08:23:09.311Z,98062.00
2018-12-17T08:27:11.646Z,98080.00
2018-12-17T08:31:14.094Z,98077.00
2018-12-17T08:35:16.531Z,98091.00
2018-12-17T08:39:18.949Z,98086.00
2018-12-17T08:43:21.345Z,98090.00
2018-12-17T08:47:23.749Z,98087.00
2018-12-17T08:51:26.077Z,98088.00
2018-12-17T08:55:35.070Z,98093.00
2018-12-17T08:59:37.418Z,98083.00
2018-12-17T09:03:39.842Z,98084.00
2018-12-17T09:07:42.249Z,98092.00
2018-12-17T09:11:44.580Z,98101.00
2018-12-17T09:15:46.906Z,98104.00
2018-12-17T09:19:49.293Z,98120.00
2018-12-17T09:23:51.624Z,98123.00
2018-12-17T09:27:54.111Z,98130.00
2018-12-17T09:31:56.458Z,98129.00
2018-12-17T09:35:58.736Z,98136.00
2018-12-17T09:40:01.111Z,98144.00
2018-12-17T09:44:03.865Z,98153.00
2018-12-17T09:48:06.031Z,98152.00
2018-12-17T09:52:08.322Z,98151.00
2018-12-17T09:56:10.673Z,98150.00
2018-12-17T10:00:13.094Z,98156.00
2018-12-17T10:04:15.433Z,98148.00
2018-12-17T10:08:17.785Z,98145.00
2018-12-17T10:12:20.214Z,98145.00
2018-12-17T10:16:22.610Z,98143.00
2018-12-17T10:20:24.976Z,98140.00
2018-12-17T10:24:27.323Z,98144.00
2018-12-17T10:28:29.700Z,98135.00
2018-12-17T10:32:32.085Z,98130.00
2018-12-17T10:36:34.520Z,98141.00
2018-12-17T10:40:39.058Z,98136.00
2018-12-17T10:44:46.254Z,98147.00
2018-12-17T10:48:48.585Z,98152.00
2018-12-17T10:52:50.982Z,98152.00
2018-12-17T10:56:53.294Z,98154.00
2018-12-17T11:01:01.254Z,98154.00
2018-12-17T11:05:10.305Z,98159.00
2018-12-17T11:09:12.650Z,98156.00
2018-12-17T11:13:14.982Z,98159.00
2018-12-17T11:17:17.313Z,98171.00
2018-12-17T11:21:19.672Z,98174.00
2018-12-17T11:25:22.017Z,98164.00
2018-12-17T11:29:24.563Z,98171.00
2018-12-17T11:33:26.889Z,98171.00
2018-12-17T11:37:29.214Z,98168.00
2018-12-17T11:41:38.189Z,98157.00
2018-12-17T11:45:40.597Z,98159.00
2018-12-17T11:49:42.942Z,98146.00
2018-12-17T11:53:45.284Z,98155.00
2018-12-17T11:58:21.676Z,98162.00
2018-12-17T12:02:24.023Z,98160.00
2018-12-17T12:06:26.390Z,98165.00
2018-12-17T12:10:28.938Z,98173.00
2018-12-17T12:14:31.424Z,98167.00
2018-12-17T12:18:33.797Z,98175.00
2018-12-17T12:22:36.135Z,98174.00
2018-12-17T12:26:38.563Z,98173.00
2018-12-17T12:30:41.924Z,98172.00
2018-12-17T12:34:44.399Z,98177.00
2018-12-17T12:38:46.766Z,98183.00
2018-12-17T12:42:51.791Z,98184.00
2018-12-17T12:46:51.528Z,98198.00
2018-12-17T12:50:53.883Z,98197.00
2018-12-17T12:54:56.363Z,98201.00
2018-12-17T12:58:58.698Z,98200.00
2018-12-17T13:03:01.182Z,98199.00
2018-12-17T13:07:04.863Z,98213.00
2018-12-17T13:11:07.978Z,98222.00
2018-12-17T13:15:10.351Z,98224.00
2018-12-17T13:19:13.618Z,98228.00
2018-12-17T13:23:15.987Z,98226.00
2018-12-17T13:27:18.296Z,98230.00
2018-12-17T13:31:20.583Z,98234.00
2018-12-17T13:35:23.333Z,98224.00
2018-12-17T13:39:25.675Z,98239.00
2018-12-17T13:43:27.994Z,98241.00
2018-12-17T13:47:31.148Z,98240.00
2018-12-17T13:51:35.206Z,98248.00
2018-12-17T13:55:37.568Z,98262.00
2018-12-17T13:59:40.462Z,98275.00
2018-12-17T14:03:42.817Z,98285.00
2018-12-17T14:07:45.138Z,98285.00
2018-12-17T14:11:47.532Z,98291.00
2018-12-17T14:15:51.178Z,98288.00
2018-12-17T14:20:00.059Z,98297.00
2018-12-17T14:24:02.597Z,98307.00
2018-12-17T14:28:05.556Z,98309.00
2018-12-17T14:32:07.956Z,98319.00
2018-12-17T14:36:10.288Z,98326.00
2018-12-17T14:40:12.732Z,98335.00
2018-12-17T14:44:49.138Z,98340.00
2018-12-17T14:48:51.464Z,98345.00
2018-12-17T14:52:53.798Z,98335.00
2018-12-17T14:56:56.266Z,98358.00
2018-12-17T15:00:59.122Z,98351.00
2018-12-17T15:05:01.405Z,98351.00
2018-12-17T15:09:05.911Z,98365.00
2018-12-17T15:13:08.311Z,98372.00
2018-12-17T15:17:10.678Z,98362.00
2018-12-17T15:21:13.149Z,98370.00
2018-12-17T15:25:15.528Z,98387.00
2018-12-17T15:29:17.998Z,98389.00
2018-12-17T15:33:20.617Z,98400.00
2018-12-17T15:37:23.092Z,98403.00
2018-12-17T15:41:25.543Z,98406.00
2018-12-17T15:45:28.093Z,98421.00
2018-12-17T15:49:30.424Z,98427.00
2018-12-17T15:53:33.044Z,98429.00
2018-12-17T15:57:35.441Z,98443.00
2018-12-17T16:01:37.823Z,98441.00
2018-12-17T16:05:41.861Z,98443.00
2018-12-17T16:09:44.278Z,98448.00
2018-12-17T16:13:46.703Z,98442.00
2018-12-17T16:17:49.063Z,98446.00
2018-12-17T16:21:51.430Z,98442.00
2018-12-17T16:25:53.829Z,98458.00
2018-12-17T16:29:56.215Z,98465.00
2018-12-17T16:33:58.631Z,98465.00
2018-12-17T16:38:01.013Z,98477.00
2018-12-17T16:42:03.432Z,98476.00
2018-12-17T16:46:05.892Z,98488.00
2018-12-17T16:50:08.898Z,98485.00
2018-12-17T16:54:11.245Z,98497.00
2018-12-17T16:58:13.615Z,98492.00
2018-12-17T17:02:16.025Z,98497.00
2018-12-17T17:06:18.395Z,98501.00
2018-12-17T17:10:20.857Z,98517.00
2018-12-17T17:14:23.221Z,98510.00
2018-12-17T17:18:25.565Z,98507.00
2018-12-17T17:22:27.919Z,98512.00
2018-12-17T17:26:30.265Z,98534.00
2018-12-17T17:30:32.617Z,98539.00
2018-12-17T17:34:34.982Z,98536.00
2018-12-17T17:38:37.411Z,98546.00
2018-12-17T17:42:40.586Z,98547.00
2018-12-17T17:46:43.012Z,98554.00
2018-12-17T17:50:45.347Z,98552.00
2018-12-17T17:54:47.766Z,98556.00
2018-12-17T17:58:50.451Z,98567.00
2018-12-17T18:02:52.800Z,98574.00
2018-12-17T18:06:55.170Z,98568.00
2018-12-17T18:10:57.565Z,98569.00
2018-12-17T18:14:59.953Z,98568.00
2018-12-17T18:19:02.426Z,98587.00
2018-12-17T18:23:04.851Z,98585.00
2018-12-17T18:27:07.230Z,98595.00
2018-12-17T18:31:09.556Z,98601.00
2018-12-17T18:35:11.904Z,98601.00
2018-12-17T18:39:14.250Z,98604.00
2018-12-17T18:43:16.670Z,98614.00
2018-12-17T18:47:25.455Z,98615.00
2018-12-17T18:51:21.649Z,98617.00
2018-12-17T18:55:24.112Z,98620.00
2018-12-17T18:59:26.505Z,98621.00
2018-12-17T19:03:28.964Z,98627.00
2018-12-17T19:07:31.454Z,98633.00
2018-12-17T19:11:33.838Z,98643.00
2018-12-17T19:15:36.585Z,98651.00
2018-12-17T19:19:39.060Z,98656.00
2018-12-17T19:23:41.732Z,98662.00
2018-12-17T19:27:44.210Z,98661.00
2018-12-17T19:31:46.594Z,98670.00
2018-12-17T19:35:48.985Z,98682.00
2018-12-17T19:39:51.541Z,98688.00
2018-12-17T19:43:53.936Z,98679.00
2018-12-17T19:47:56.937Z,98691.00
2018-12-17T19:51:59.331Z,98686.00
2018-12-17T19:56:01.695Z,98693.00
2018-12-17T20:00:05.124Z,98697.00
2018-12-17T20:04:07.712Z,98709.00
2018-12-17T20:08:10.716Z,98710.00
2018-12-17T20:12:13.297Z,98713.00
2018-12-17T20:16:15.666Z,98717.00
2018-12-17T20:20:18.110Z,98717.00
2018-12-17T20:24:20.642Z,98723.00
2018-12-17T20:28:23.276Z,98722.00
2018-12-17T20:32:25.816Z,98730.00
2018-12-17T20:36:28.299Z,98734.00
2018-12-17T20:40:30.736Z,98726.00
2018-12-17T20:44:33.107Z,98728.00
2018-12-17T20:48:35.595Z,98727.00
2018-12-17T20:52:37.974Z,98741.00
2018-12-17T20:56:40.501Z,98743.00
2018-12-17T21:00:42.834Z,98747.00
2018-12-17T21:04:45.229Z,98753.00
2018-12-17T21:08:47.749Z,98742.00
2018-12-17T21:12:50.268Z,98746.00
2018-12-17T21:16:52.681Z,98750.00
2018-12-17T21:20:55.024Z,98753.00
2018-12-17T21:24:57.334Z,98754.00
2018-12-17T21:28:59.691Z,98757.00
2018-12-17T21:33:06.711Z,98752.00
2018-12-17T21:37:04.519Z,98756.00
2018-12-17T21:41:08.084Z,98754.00
2018-12-17T21:45:10.484Z,98748.00
2018-12-17T21:49:12.955Z,98758.00
2018-12-17T21:53:15.300Z,98765.00
2018-12-17T21:57:17.724Z,98742.00
2018-12-17T22:01:20.180Z,98752.00
2018-12-17T22:05:24.499Z,98752.00
2018-12-17T22:09:26.867Z,98763.00
2018-12-17T22:13:30.047Z,98764.00
2018-12-17T22:17:32.395Z,98782.00
2018-12-17T22:21:34.758Z,98774.00
2018-12-17T22:25:37.154Z,98779.00
2018-12-17T22:29:39.639Z,98775.00
2018-12-17T22:33:42.044Z,98791.00
2018-12-17T22:37:44.428Z,98794.00
2018-12-17T22:41:47.651Z,98803.00
2018-12-17T22:45:51.045Z,98809.00
2018-12-17T22:49:53.396Z,98811.00
2018-12-17T22:53:55.758Z,98817.00
2018-12-17T22:57:58.148Z,98813.00
2018-12-17T23:02:01.046Z,98816.00
2018-12-17T23:06:03.408Z,98812.00
2018-12-17T23:10:17.117Z,98811.00
2018-12-17T23:14:30.810Z,98815.00
2018-12-17T23:18:32.696Z,98823.00
2018-12-17T23:22:35.186Z,98820.00
2018-12-17T23:26:37.576Z,98824.00
2018-12-17T23:30:39.950Z,98822.00
2018-12-17T23:34:42.277Z,98818.00
2018-12-17T23:38:44.636Z,98818.00
2018-12-17T23:42:46.962Z,98819.00
2018-12-17T23:46:49.340Z,98820.00
2018-12-17T23:50:51.781Z,98811.00
2018-12-17T23:54:54.101Z,98816.00
2018-12-17T23:58:56.479Z,98820.00
